Time;durP1;ratioP1;P1;durP2;ratioP2;P2;SDS_P1;SDS_P2;PMS_P1;PMS_P2;Temp;Humidity;BMP_temperature;BMP_pressure;BME280_temperature;BME280_humidity;BME280_pressure;Samples;Min_cycle;Max_cycle;Signal;HPM_P1;HPM_P2
2023/08/12 00:01:24;;;;;;;;;;;20.90;53.20;;;17.06;100.00;95864.41;4970181;28;19956;-50
2023/08/12 00:03:51;;;;;;;;;;;20.90;53.30;;;17.05;100.00;95856.66;4967554;28;20295;-46
2023/08/12 00:06:17;;;;;;;;;;;20.80;53.60;;;17.02;100.00;95865.31;4963929;28;19909;-47
2023/08/12 00:08:42;;;;;;;;;;;20.80;53.40;;;17.02;100.00;95857.25;4959758;28;19917;-51
2023/08/12 00:11:08;;;;;;;;;;;20.80;53.50;;;16.98;100.00;95861.63;4961927;28;19910;-48
2023/08/12 00:13:34;;;;;;;;;;;20.80;53.60;;;16.95;100.00;95852.25;4969912;28;19916;-52
2023/08/12 00:16:00;;;;;;;;;;;20.70;53.60;;;16.91;100.00;95856.63;4962172;28;20317;-51
2023/08/12 00:18:25;;;;;;;;;;;20.70;53.70;;;16.86;100.00;95849.47;4967486;28;20005;-50
2023/08/12 00:20:51;;;;;;;;;;;20.70;53.80;;;16.83;100.00;95860.81;4972931;28;19964;-52
2023/08/12 00:23:17;;;;;;;;;;;20.70;53.90;;;16.85;100.00;95855.13;4959130;28;19920;-50
2023/08/12 00:25:43;;;;;;;;;;;20.70;54.00;;;16.86;100.00;95854.84;4971671;28;19960;-53
2023/08/12 00:28:10;;;;;;;;;;;20.70;54.10;;;16.85;100.00;95855.13;4959904;28;19937;-50
2023/08/12 00:30:35;;;;;;;;;;;20.60;54.20;;;16.83;100.00;95858.13;4963911;28;19933;-49
2023/08/12 00:33:02;;;;;;;;;;;20.60;54.20;;;16.83;100.00;95851.97;4959168;28;20013;-49
2023/08/12 00:35:28;;;;;;;;;;;20.60;54.30;;;16.84;100.00;95857.03;4961870;28;20336;-50
2023/08/12 00:37:53;;;;;;;;;;;20.60;54.40;;;16.87;100.00;95848.38;4973463;28;19946;-48
2023/08/12 00:40:19;;;;;;;;;;;20.60;54.40;;;16.86;100.00;95845.97;4964502;28;19916;-50
2023/08/12 00:42:46;;;;;;;;;;;20.60;54.50;;;16.84;100.00;95853.53;4958033;28;19921;-49
2023/08/12 00:45:13;;;;;;;;;;;20.60;55.10;;;16.80;100.00;95849.88;4972693;28;19913;-47
2023/08/12 00:47:40;;;;;;;;;;;20.60;54.60;;;16.78;100.00;95844.75;4959553;28;20004;-49
2023/08/12 00:50:09;;;;;;;;;;;20.60;54.60;;;16.78;100.00;95850.16;4970659;28;19968;-49
2023/08/12 00:52:35;;;;;;;;;;;20.60;54.70;;;16.77;100.00;95847.75;4971061;28;19913;-47
2023/08/12 00:55:01;;;;;;;;;;;20.60;54.80;;;16.74;100.00;95845.63;4970324;28;19916;-48
2023/08/12 00:57:27;;;;;;;;;;;20.60;54.80;;;16.71;100.00;95841.66;4959727;28;20288;-48
2023/08/12 00:59:56;;;;;;;;;;;20.60;54.90;;;16.76;100.00;95838.09;4971362;28;19914;-48
2023/08/12 01:02:22;;;;;;;;;;;20.60;55.00;;;16.78;100.00;95834.00;4967992;28;19968;-48
2023/08/12 01:04:48;;;;;;;;;;;20.60;55.00;;;16.80;100.00;95831.81;4971147;28;20345;-48
2023/08/12 01:07:14;;;;;;;;;;;20.50;55.00;;;16.78;100.00;95834.00;4960159;28;19917;-50
2023/08/12 01:09:40;;;;;;;;;;;20.60;55.10;;;16.76;100.00;95832.69;4959703;28;19996;-53
2023/08/12 01:12:33;;;;;;;;;;;20.60;55.20;;;16.79;100.00;95840.97;4965575;28;19953;-50
2023/08/12 01:15:17;;;;;;;;;;;20.60;55.20;;;16.83;100.00;95833.91;4952232;28;19910;-52
2023/08/12 01:17:44;;;;;;;;;;;20.60;55.30;;;16.90;100.00;95835.41;4971438;28;20024;-50
2023/08/12 01:20:14;;;;;;;;;;;20.70;55.40;;;16.92;100.00;95836.69;4967856;28;19910;-50
2023/08/12 01:22:43;;;;;;;;;;;20.70;55.40;;;16.93;100.00;95837.50;4959402;28;19949;-53
2023/08/12 01:25:09;;;;;;;;;;;20.70;55.50;;;16.92;100.00;95836.69;4954303;28;19964;-52
2023/08/12 01:27:37;;;;;;;;;;;20.70;55.50;;;16.94;100.00;95831.03;4959333;28;19913;-52
2023/08/12 01:30:07;;;;;;;;;;;20.70;55.60;;;16.98;100.00;95835.50;4952851;28;19941;-54
2023/08/12 01:32:44;;;;;;;;;;;20.70;55.60;;;16.95;100.00;95832.63;4968421;28;19910;-52
2023/08/12 01:35:30;;;;;;;;;;;20.70;55.60;;;16.97;100.00;95825.84;4961835;28;19932;-48
2023/08/12 01:38:01;;;;;;;;;;;20.70;55.60;;;16.98;100.00;95821.25;4978138;28;20404;-53
2023/08/12 01:40:29;;;;;;;;;;;20.70;55.70;;;16.97;100.00;95823.16;4970989;28;20655;-49
2023/08/12 01:42:55;;;;;;;;;;;20.70;55.70;;;16.96;100.00;95826.94;4972702;23;19918;-53
2023/08/12 01:45:22;;;;;;;;;;;20.70;55.80;;;16.96;100.00;95826.94;4992862;28;20452;-51
2023/08/12 01:47:50;;;;;;;;;;;20.70;55.80;;;16.96;100.00;95826.16;5006707;28;20003;-52
2023/08/12 01:50:16;;;;;;;;;;;20.80;55.90;;;16.94;100.00;95821.06;5010280;28;19965;-51
2023/08/12 01:52:42;;;;;;;;;;;20.70;55.90;;;16.99;100.00;95822.88;5001424;28;19909;-50
2023/08/12 01:55:08;;;;;;;;;;;20.80;56.00;;;17.03;100.00;95816.56;4982269;28;19910;-48
2023/08/12 01:57:34;;;;;;;;;;;20.80;56.10;;;17.07;100.00;95828.31;4985682;28;19924;-50
2023/08/12 02:00:02;;;;;;;;;;;20.80;56.20;;;17.13;100.00;95818.25;4980221;28;19909;-52
2023/08/12 02:02:27;;;;;;;;;;;20.90;56.20;;;17.18;100.00;95828.94;4994316;28;20384;-49
2023/08/12 02:04:53;;;;;;;;;;;20.90;56.20;;;17.24;100.00;95825.03;4979714;28;20032;-49
2023/08/12 02:07:19;;;;;;;;;;;20.90;56.30;;;17.29;100.00;95824.91;4984399;28;19909;-53
2023/08/12 02:09:45;;;;;;;;;;;21.00;56.30;;;17.30;100.00;95820.34;4993268;28;19954;-48
2023/08/12 02:12:10;;;;;;;;;;;21.10;56.30;;;17.33;100.00;95817.06;4976429;28;19979;-50
2023/08/12 02:14:36;;;;;;;;;;;21.00;56.30;;;17.33;100.00;95819.75;4980756;28;19909;-50
2023/08/12 02:17:05;;;;;;;;;;;21.10;56.30;;;17.31;100.00;95820.03;4986555;28;19916;-50
2023/08/12 02:19:33;;;;;;;;;;;21.10;56.30;;;17.33;100.00;95817.84;4991081;28;20005;-52
2023/08/12 02:22:00;;;;;;;;;;;21.10;56.30;;;17.30;100.00;95814.97;4985633;28;20362;-49
2023/08/12 02:24:25;;;;;;;;;;;21.10;56.30;;;17.26;100.00;95809.38;4979547;28;20008;-49
2023/08/12 02:26:51;;;;;;;;;;;21.10;56.30;;;17.23;100.00;95804.59;4976087;28;19929;-49
2023/08/12 02:29:17;;;;;;;;;;;21.00;56.30;;;17.21;100.00;95800.63;4988967;28;19956;-48
2023/08/12 02:31:43;;;;;;;;;;;21.00;56.40;;;17.20;100.00;95804.41;4999651;28;20422;-48
2023/08/12 02:34:09;;;;;;;;;;;21.00;56.40;;;17.17;100.00;95808.47;4988738;28;19916;-53
2023/08/12 02:36:35;;;;;;;;;;;21.00;56.50;;;17.13;100.00;95802.13;4977003;28;20016;-49
2023/08/12 02:39:01;;;;;;;;;;;21.00;56.50;;;17.14;100.00;95802.91;4982043;28;20028;-48
2023/08/12 02:41:26;;;;;;;;;;;21.00;56.60;;;17.10;100.00;95810.78;4986069;28;19997;-50
2023/08/12 02:44:02;;;;;;;;;;;20.90;56.60;;;17.08;100.00;95805.72;4984958;28;19982;-50
2023/08/12 02:46:28;;;;;;;;;;;20.90;56.60;;;17.06;100.00;95804.41;4986689;28;20303;-49
2023/08/12 02:48:53;;;;;;;;;;;20.90;56.70;;;17.08;100.00;95804.94;4987254;28;20003;-49
2023/08/12 02:51:19;;;;;;;;;;;20.90;56.80;;;17.05;100.00;95800.94;4983816;28;20019;-51
2023/08/12 02:53:45;;;;;;;;;;;20.90;56.80;;;17.05;100.00;95805.53;4979895;28;20008;-50
2023/08/12 02:56:10;;;;;;;;;;;20.90;56.90;;;17.03;100.00;95808.50;4975891;28;20365;-50
2023/08/12 02:58:37;;;;;;;;;;;20.80;56.80;;;16.95;100.00;95809.19;4988394;28;19909;-51
2023/08/12 03:01:04;;;;;;;;;;;20.80;56.90;;;16.98;100.00;95813.19;4980486;28;19924;-50
2023/08/12 03:03:29;;;;;;;;;;;20.80;56.90;;;17.01;100.00;95808.00;4979619;28;19944;-52
2023/08/12 03:05:55;;;;;;;;;;;20.90;57.00;;;17.06;100.00;95807.91;4983265;28;20379;-50
2023/08/12 03:08:21;;;;;;;;;;;20.80;57.00;;;17.07;100.00;95806.00;4980139;28;20008;-48
2023/08/12 03:10:47;;;;;;;;;;;20.90;57.10;;;17.04;100.00;95804.69;4987101;28;20339;-48
2023/08/12 03:13:12;;;;;;;;;;;20.80;57.10;;;17.03;100.00;95802.31;4980588;28;19955;-50
2023/08/12 03:15:42;;;;;;;;;;;20.90;57.10;;;16.99;100.00;95801.34;4974891;28;19910;-48
2023/08/12 03:18:08;;;;;;;;;;;20.80;57.10;;;16.99;100.00;95801.34;4987283;28;19910;-53
2023/08/12 03:20:34;;;;;;;;;;;20.90;57.20;;;16.99;100.00;95799.44;4984482;28;19917;-51
2023/08/12 03:23:00;;;;;;;;;;;20.80;57.20;;;16.94;100.00;95793.34;4975959;28;19960;-51
2023/08/12 03:25:26;;;;;;;;;;;20.80;57.20;;;16.91;100.00;95788.56;4992912;28;19914;-47
2023/08/12 03:27:51;;;;;;;;;;;20.80;57.30;;;16.86;100.00;95784.91;4979923;28;19960;-51
2023/08/12 03:30:17;;;;;;;;;;;20.80;57.90;;;16.88;100.00;95784.59;4982277;28;19916;-52
2023/08/12 03:32:43;;;;;;;;;;;20.70;57.30;;;16.83;100.00;95788.19;4979117;28;19917;-51
2023/08/12 03:35:09;;;;;;;;;;;20.80;57.40;;;16.87;100.00;95788.38;4982168;28;19916;-48
2023/08/12 03:37:34;;;;;;;;;;;20.70;57.50;;;16.83;100.00;95793.56;4979710;28;20390;-50
2023/08/12 03:40:00;;;;;;;;;;;20.80;57.60;;;16.88;100.00;95798.03;4982223;28;19932;-50
2023/08/12 03:42:26;;;;;;;;;;;20.80;57.60;;;16.85;100.00;95796.75;4979701;28;19984;-50
2023/08/12 03:44:52;;;;;;;;;;;20.80;57.60;;;16.89;100.00;95794.25;4990939;28;20383;-51
2023/08/12 03:47:21;;;;;;;;;;;20.80;57.70;;;16.93;100.00;95792.56;4982787;28;19910;-48
2023/08/12 03:49:47;;;;;;;;;;;20.80;57.70;;;17.00;100.00;95795.66;4985369;28;19917;-51
2023/08/12 03:52:13;;;;;;;;;;;20.80;57.70;;;17.04;100.00;95804.69;4986050;28;19909;-48
2023/08/12 03:54:39;;;;;;;;;;;20.90;57.80;;;17.10;100.00;95800.81;4975844;28;19971;-49
2023/08/12 03:57:05;;;;;;;;;;;20.90;57.80;;;17.17;100.00;95803.09;4992549;28;19909;-49
2023/08/12 03:59:31;;;;;;;;;;;21.00;58.60;;;17.21;100.00;95806.81;4980624;28;19909;-49
2023/08/12 04:01:57;;;;;;;;;;;21.00;57.90;;;17.27;100.00;95805.59;4991234;28;19909;-52
2023/08/12 04:04:24;;;;;;;;;;;21.00;57.90;;;17.31;100.00;95806.56;4986574;28;28002;-51
2023/08/12 04:06:53;;;;;;;;;;;21.10;57.90;;;17.31;100.00;95809.28;4985260;28;19995;-50
2023/08/12 04:09:19;;;;;;;;;;;21.10;57.90;;;17.33;100.00;95808.97;4980278;28;20322;-49
2023/08/12 04:11:46;;;;;;;;;;;21.10;57.90;;;17.33;100.00;95804.41;4993386;28;20287;-47
2023/08/12 04:14:14;;;;;;;;;;;21.10;57.90;;;17.35;100.00;95804.06;4987780;28;19924;-52
2023/08/12 04:16:40;;;;;;;;;;;21.20;57.90;;;17.34;100.00;95799.81;4993296;28;19909;-50
2023/08/12 04:19:06;;;;;;;;;;;21.20;57.90;;;17.39;100.00;95802.38;4978725;28;19910;-52
2023/08/12 04:21:31;;;;;;;;;;;21.20;57.90;;;17.43;100.00;95800.69;4980634;28;19913;-50
2023/08/12 04:23:57;;;;;;;;;;;21.30;57.90;;;17.46;100.00;95796.59;4979707;28;20291;-50
2023/08/12 04:26:23;;;;;;;;;;;21.30;57.90;;;17.50;100.00;95798.38;4985766;28;19910;-48
2023/08/12 04:28:48;;;;;;;;;;;21.40;58.00;;;17.52;100.00;95798.88;4973990;28;19909;-53
2023/08/12 04:31:14;;;;;;;;;;;21.40;57.90;;;17.60;100.00;95791.94;4984952;28;19913;-50
2023/08/12 04:33:40;;;;;;;;;;;21.50;58.00;;;17.64;100.00;95787.53;4979900;28;19909;-51
2023/08/12 04:36:06;;;;;;;;;;;21.50;57.90;;;17.67;100.00;95789.63;4980972;28;19913;-53
2023/08/12 04:38:32;;;;;;;;;;;21.50;57.90;;;17.65;100.00;95789.16;4984406;28;19910;-51
2023/08/12 04:40:58;;;;;;;;;;;21.60;57.80;;;17.72;100.00;95792.22;4973484;28;19910;-48
2023/08/12 04:43:24;;;;;;;;;;;21.60;57.90;;;17.75;100.00;95797.00;4984944;28;19918;-48
2023/08/12 04:45:49;;;;;;;;;;;21.60;57.80;;;17.80;100.00;95793.44;5007884;28;20280;-49
2023/08/12 04:48:15;;;;;;;;;;;21.70;57.90;;;17.81;100.00;95797.72;4974332;28;20391;-55
2023/08/12 04:50:42;;;;;;;;;;;21.80;57.90;;;17.87;100.00;95795.69;4979008;28;20008;-51
2023/08/12 04:53:08;;;;;;;;;;;21.80;57.80;;;17.87;100.00;95795.69;4986034;28;19937;-52
2023/08/12 04:55:35;;;;;;;;;;;21.80;57.70;;;17.92;100.00;95799.03;4981377;28;19909;-50
2023/08/12 04:58:02;;;;;;;;;;;21.90;57.80;;;17.96;100.00;95808.13;4986427;28;19914;-50
2023/08/12 05:00:29;;;;;;;;;;;21.90;57.70;;;17.99;100.00;95802.13;4973135;28;19960;-50
2023/08/12 05:02:55;;;;;;;;;;;22.00;57.70;;;18.02;100.00;95798.03;4979786;28;20028;-51
2023/08/12 05:05:21;;;;;;;;;;;22.00;57.60;;;18.10;100.00;95805.38;5007439;28;19944;-50
2023/08/12 05:07:49;;;;;;;;;;;22.20;57.70;;;18.20;100.00;95797.03;4972813;28;19910;-50
2023/08/12 05:10:18;;;;;;;;;;;22.20;57.60;;;18.24;100.00;95795.31;4986166;28;19936;-51
2023/08/12 05:12:44;;;;;;;;;;;22.30;57.60;;;18.32;100.00;95795.66;4975226;28;19914;-48
2023/08/12 05:15:10;;;;;;;;;;;22.40;57.60;;;18.36;100.00;95791.25;4978765;28;19964;-53
2023/08/12 05:17:37;;;;;;;;;;;22.40;57.50;;;18.42;100.00;95790.00;4980656;28;20391;-50
2023/08/12 05:20:04;;;;;;;;;;;22.50;57.50;;;18.53;100.00;95802.13;4990658;28;20012;-49
2023/08/12 05:22:30;;;;;;;;;;;22.60;57.40;;;18.74;100.00;95807.84;4980473;28;20364;-50
2023/08/12 05:24:55;;;;;;;;;;;22.80;57.40;;;19.03;100.00;95803.81;4981551;28;19917;-51
2023/08/12 05:27:21;;;;;;;;;;;23.10;57.30;;;19.38;100.00;95810.09;4979814;28;20063;-52
2023/08/12 05:29:47;;;;;;;;;;;23.40;57.20;;;19.77;100.00;95805.69;4974185;28;19992;-53
2023/08/12 05:32:13;;;;;;;;;;;23.80;57.10;;;20.15;97.31;95805.03;4980119;28;20364;-48
2023/08/12 05:34:38;;;;;;;;;;;24.10;56.80;;;20.47;92.58;95796.41;4989984;28;19910;-53
2023/08/12 05:37:04;;;;;;;;;;;24.50;56.60;;;20.67;92.02;95800.34;4981941;28;20422;-52
2023/08/12 05:39:30;;;;;;;;;;;24.70;56.40;;;20.79;89.84;95792.34;4983207;28;19916;-53
2023/08/12 05:41:56;;;;;;;;;;;24.90;56.20;;;20.87;88.15;95803.44;4988553;28;20268;-50
2023/08/12 05:44:22;;;;;;;;;;;25.00;55.90;;;20.86;87.35;95804.59;4978191;28;19957;-53
2023/08/12 05:46:48;;;;;;;;;;;25.10;55.60;;;20.86;88.31;95808.06;4988994;28;19926;-49
2023/08/12 05:49:13;;;;;;;;;;;25.20;55.50;;;20.89;88.38;95803.94;4981917;28;19909;-51
2023/08/12 05:51:39;;;;;;;;;;;25.20;55.30;;;20.87;87.43;95811.56;4975715;28;20357;-50
2023/08/12 05:54:05;;;;;;;;;;;25.30;55.20;;;20.86;87.74;95805.38;4988861;28;19910;-52
2023/08/12 05:56:31;;;;;;;;;;;25.30;55.00;;;20.79;87.59;95803.16;4984527;28;19989;-49
2023/08/12 05:58:56;;;;;;;;;;;25.30;54.80;;;20.87;88.07;95804.28;4981882;28;19918;-52
2023/08/12 06:01:22;;;;;;;;;;;25.40;54.80;;;20.96;88.23;95806.91;4976270;28;19910;-53
2023/08/12 06:03:48;;;;;;;;;;;25.50;54.70;;;21.07;88.50;95819.00;4989035;28;19921;-52
2023/08/12 06:06:14;;;;;;;;;;;25.60;54.60;;;21.29;88.76;95820.63;4976295;28;19920;-50
2023/08/12 06:08:40;;;;;;;;;;;25.80;54.50;;;21.60;82.99;95812.19;4980510;28;19909;-50
2023/08/12 06:11:06;;;;;;;;;;;26.10;54.30;;;21.92;79.69;95813.38;4986189;28;19910;-48
2023/08/12 06:13:31;;;;;;;;;;;26.50;54.20;;;22.17;78.38;95813.53;4987102;28;20287;-52
2023/08/12 06:15:57;;;;;;;;;;;26.70;54.00;;;22.35;77.73;95820.38;4975820;28;19916;-50
2023/08/12 06:18:23;;;;;;;;;;;26.80;53.80;;;22.52;76.47;95813.97;4980030;28;20261;-51
2023/08/12 06:20:49;;;;;;;;;;;26.90;53.60;;;22.59;76.61;95808.81;4988406;28;19921;-52
2023/08/12 06:23:16;;;;;;;;;;;27.00;53.40;;;22.62;77.39;95812.75;4988924;28;19913;-51
2023/08/12 06:25:42;;;;;;;;;;;27.00;53.20;;;22.59;77.22;95810.69;4983611;28;20299;-48
2023/08/12 06:28:09;;;;;;;;;;;27.10;53.10;;;22.66;76.89;95815.56;4975864;28;19914;-48
2023/08/12 06:30:36;;;;;;;;;;;27.10;52.80;;;22.89;74.62;95811.34;4987012;28;19917;-52
2023/08/12 06:33:02;;;;;;;;;;;27.40;52.70;;;23.08;74.52;95808.88;4982042;28;19917;-52
2023/08/12 06:35:28;;;;;;;;;;;27.70;52.50;;;23.40;70.80;95814.53;4981985;28;19913;-53
2023/08/12 06:37:53;;;;;;;;;;;28.00;52.20;;;23.65;69.87;95817.22;4982745;28;19916;-48
2023/08/12 06:40:20;;;;;;;;;;;28.20;52.00;;;23.90;69.71;95820.72;4991467;28;19916;-50
2023/08/12 06:42:45;;;;;;;;;;;28.60;51.80;;;24.18;68.28;95816.06;4984047;28;19921;-52
2023/08/12 06:45:11;;;;;;;;;;;29.00;51.50;;;24.57;66.40;95810.94;4977068;28;19922;-49
2023/08/12 06:47:37;;;;;;;;;;;29.40;51.20;;;24.89;64.21;95819.16;4985442;28;20307;-56
2023/08/12 06:50:03;;;;;;;;;;;29.80;50.90;;;25.11;62.14;95815.81;4983855;28;19921;-55
2023/08/12 06:52:29;;;;;;;;;;;30.10;50.30;;;25.26;62.20;95821.63;4985067;28;20306;-48
2023/08/12 06:54:55;;;;;;;;;;;30.30;49.90;;;25.64;61.29;95812.78;4976042;28;19914;-49
2023/08/12 06:57:20;;;;;;;;;;;30.80;49.60;;;25.99;59.51;95812.78;4978223;28;19917;-50
2023/08/12 06:59:46;;;;;;;;;;;31.20;49.10;;;26.44;58.86;95816.00;4978380;28;19913;-50
2023/08/12 07:02:12;;;;;;;;;;;31.80;48.60;;;26.91;57.12;95814.94;4982435;28;19910;-50
2023/08/12 07:04:38;;;;;;;;;;;32.40;48.20;;;27.35;55.05;95817.22;4977880;28;19985;-49
2023/08/12 07:07:04;;;;;;;;;;;33.00;47.80;;;27.59;53.75;95814.09;4985297;28;19909;-50
2023/08/12 07:09:29;;;;;;;;;;;33.20;47.20;;;27.50;53.33;95816.28;4980463;28;19909;-50
2023/08/12 07:11:55;;;;;;;;;;;33.30;46.90;;;27.35;54.17;95825.44;4983156;28;20377;-50
2023/08/12 07:14:22;;;;;;;;;;;33.30;46.60;;;27.26;53.60;95820.22;4983797;28;19914;-48
2023/08/12 07:16:47;;;;;;;;;;;33.20;46.30;;;27.20;54.42;95827.97;4984604;28;19909;-54
2023/08/12 07:19:14;;;;;;;;;;;33.10;46.10;;;26.89;55.52;95828.16;4975327;28;19914;-49
2023/08/12 07:21:40;;;;;;;;;;;32.90;45.60;;;26.98;55.57;95825.97;4983262;28;19909;-51
2023/08/12 07:24:06;;;;;;;;;;;32.70;45.40;;;27.21;55.28;95832.25;4982996;28;19924;-53
2023/08/12 07:26:32;;;;;;;;;;;32.90;45.30;;;27.28;55.01;95833.53;4991454;28;20008;-52
2023/08/12 07:28:58;;;;;;;;;;;33.00;45.30;;;27.30;54.81;95837.50;4993317;28;20000;-47
2023/08/12 07:31:23;;;;;;;;;;;33.00;45.00;;;27.30;55.20;95837.50;4984694;28;19916;-49
2023/08/12 07:33:50;;;;;;;;;;;33.00;44.90;;;27.30;53.86;95832.03;4993106;28;20273;-52
2023/08/12 07:36:15;;;;;;;;;;;33.20;44.60;;;27.50;53.82;95829.19;4980425;28;19933;-52
2023/08/12 07:38:41;;;;;;;;;;;33.50;44.40;;;27.51;53.45;95825.28;4991639;28;19917;-47
2023/08/12 07:41:07;;;;;;;;;;;33.60;44.30;;;27.88;53.22;95828.97;4992697;28;19979;-47
2023/08/12 07:43:33;;;;;;;;;;;33.80;44.20;;;28.23;52.68;95827.84;4991748;28;19917;-49
2023/08/12 07:45:58;;;;;;;;;;;34.10;44.10;;;28.67;50.94;95840.91;4980451;28;19913;-48
2023/08/12 07:48:24;;;;;;;;;;;34.30;43.60;;;28.88;49.73;95828.59;4991662;28;19910;-51
2023/08/12 07:50:59;;;;;;;;;;;34.60;43.40;;;29.05;49.42;95833.47;4985580;28;20402;-47
2023/08/12 07:53:26;;;;;;;;;;;34.80;43.30;;;28.94;49.09;95822.38;4984965;28;19920;-53
2023/08/12 07:55:52;;;;;;;;;;;34.80;42.70;;;29.14;48.95;95825.72;4985964;28;19910;-54
2023/08/12 07:58:18;;;;;;;;;;;34.80;43.20;;;29.15;49.30;95818.31;4992959;28;20384;-47
2023/08/12 08:00:44;;;;;;;;;;;34.80;42.50;;;29.12;50.89;95827.28;4980039;28;20936;-53
2023/08/12 08:03:09;;;;;;;;;;;34.70;42.30;;;29.15;49.35;95824.56;5020513;23;20445;-46
2023/08/12 08:05:35;;;;;;;;;;;34.70;42.90;;;28.99;50.16;95824.81;4994126;28;19917;-47
2023/08/12 08:08:01;;;;;;;;;;;34.70;42.40;;;29.01;50.27;95825.22;5007317;28;20276;-50
2023/08/12 08:10:27;;;;;;;;;;;34.50;42.20;;;29.09;50.65;95828.81;5013250;28;19963;-46
2023/08/12 08:12:53;;;;;;;;;;;34.50;42.20;;;29.15;49.51;95826.53;5010743;28;20393;-47
2023/08/12 08:15:18;;;;;;;;;;;34.70;42.00;;;29.07;49.45;95830.38;5013187;28;19955;-51
2023/08/12 08:17:44;;;;;;;;;;;34.70;41.80;;;29.39;49.86;95836.13;4999653;28;19910;-48
2023/08/12 08:20:10;;;;;;;;;;;34.80;41.60;;;29.58;48.06;95840.56;5011388;28;19915;-50
2023/08/12 08:22:36;;;;;;;;;;;35.10;41.50;;;30.03;47.96;95846.78;5012461;28;19909;-48
2023/08/12 08:25:02;;;;;;;;;;;35.60;41.30;;;30.29;47.50;95848.47;5008242;28;19909;-46
2023/08/12 08:27:28;;;;;;;;;;;36.20;40.90;;;30.87;46.48;95848.31;4999877;28;19913;-51
2023/08/12 08:29:54;;;;;;;;;;;36.90;40.60;;;31.02;45.30;95859.31;4992751;28;20272;-46
2023/08/12 08:32:20;;;;;;;;;;;37.20;40.20;;;31.45;43.88;95854.66;5006829;28;20363;-46
2023/08/12 08:34:45;;;;;;;;;;;37.70;39.80;;;31.77;42.98;95859.34;5011657;28;20354;-51
2023/08/12 08:37:11;;;;;;;;;;;38.00;39.40;;;32.12;42.70;95864.03;5009348;28;20019;-48
2023/08/12 08:39:37;;;;;;;;;;;38.40;39.00;;;32.33;40.95;95865.16;5003867;28;20001;-48
2023/08/12 08:42:05;;;;;;;;;;;38.50;38.70;;;32.22;41.02;95859.69;5005334;28;19960;-46
2023/08/12 08:44:33;;;;;;;;;;;38.60;38.60;;;32.23;41.15;95864.00;5007304;28;19920;-47
2023/08/12 08:47:01;;;;;;;;;;;38.70;38.40;;;32.03;41.24;95871.94;4998149;28;20417;-49
2023/08/12 08:49:30;;;;;;;;;;;38.50;38.20;;;31.82;42.31;95880.22;5005981;28;20297;-46
2023/08/12 08:51:58;;;;;;;;;;;38.30;38.00;;;31.51;42.80;95871.56;4997172;28;19914;-46
2023/08/12 08:54:24;;;;;;;;;;;38.00;38.00;;;31.47;43.16;95877.09;5000597;28;20015;-48
2023/08/12 08:56:50;;;;;;;;;;;37.60;38.00;;;31.27;44.67;95882.13;5007955;28;20016;-46
2023/08/12 08:59:15;;;;;;;;;;;37.30;38.20;;;31.23;44.24;95883.31;5001711;28;19992;-50
2023/08/12 09:01:44;;;;;;;;;;;37.20;38.20;;;31.36;44.09;95887.28;5000674;28;19909;-51
2023/08/12 09:04:12;;;;;;;;;;;37.40;38.00;;;31.21;45.00;95885.69;5000309;28;20291;-46
2023/08/12 09:06:40;;;;;;;;;;;37.70;37.80;;;31.25;44.64;95887.28;5012711;28;19909;-46
2023/08/12 09:09:14;;;;;;;;;;;38.00;37.50;;;31.59;44.56;95886.94;5008131;28;20342;-52
2023/08/12 09:11:43;;;;;;;;;;;38.50;37.30;;;31.93;43.21;95883.75;5011519;28;19948;-49
2023/08/12 09:14:09;;;;;;;;;;;38.90;36.80;;;32.04;42.99;95884.53;5010550;28;19909;-48
2023/08/12 09:16:35;;;;;;;;;;;39.30;36.40;;;31.87;43.18;95879.78;5004201;28;20358;-48
2023/08/12 09:19:01;;;;;;;;;;;39.50;35.70;;;32.33;42.28;95885.22;5008724;28;19909;-49
2023/08/12 09:21:27;;;;;;;;;;;39.60;35.70;;;32.15;42.12;95888.03;5012075;28;20311;-49
2023/08/12 09:23:53;;;;;;;;;;;39.40;35.70;;;32.17;42.26;95884.88;5009426;28;19925;-48
2023/08/12 09:26:21;;;;;;;;;;;39.10;35.70;;;32.11;42.80;95890.00;5011961;28;19912;-48
2023/08/12 09:28:48;;;;;;;;;;;38.90;35.80;;;31.83;43.41;95890.81;5016754;28;20445;-49
2023/08/12 09:31:32;;;;;;;;;;;38.70;36.00;;;32.01;43.14;95897.13;5004154;28;19958;-50
2023/08/12 09:34:04;;;;;;;;;;;39.00;35.70;;;32.47;42.16;95900.97;5017648;28;19915;-48
2023/08/12 09:36:31;;;;;;;;;;;39.40;35.40;;;32.49;42.14;95896.59;5012150;28;19916;-51
2023/08/12 09:39:00;;;;;;;;;;;39.40;35.40;;;32.52;42.40;95906.06;5016477;28;19944;-49
2023/08/12 09:41:28;;;;;;;;;;;39.20;36.10;;;32.35;42.85;95910.44;5000285;28;19948;-49
2023/08/12 09:43:56;;;;;;;;;;;38.90;35.60;;;31.98;43.75;95922.69;5008785;28;19924;-46
2023/08/12 09:46:24;;;;;;;;;;;38.40;35.60;;;31.45;44.78;95919.94;5009288;28;19909;-46
2023/08/12 09:48:52;;;;;;;;;;;37.90;35.70;;;30.54;46.56;95917.28;5010336;28;19913;-46
2023/08/12 09:51:20;;;;;;;;;;;37.50;35.70;;;30.34;47.53;95917.59;5006403;28;20414;-46
2023/08/12 09:53:51;;;;;;;;;;;37.00;35.70;;;29.64;48.72;95913.16;5015072;28;19916;-48
2023/08/12 09:56:23;;;;;;;;;;;36.60;35.70;;;29.69;48.73;95915.56;5011518;28;19910;-46
2023/08/12 09:58:50;;;;;;;;;;;36.20;36.60;;;29.18;49.34;95913.53;5004505;28;19909;-48
2023/08/12 10:01:20;;;;;;;;;;;35.90;36.10;;;28.80;49.61;95913.50;5010284;28;19916;-47
2023/08/12 10:03:53;;;;;;;;;;;35.60;36.20;;;28.46;50.87;95912.72;5013382;28;19963;-51
2023/08/12 10:06:20;;;;;;;;;;;35.30;36.30;;;28.58;50.73;95912.47;5017116;28;20271;-46
2023/08/12 10:08:48;;;;;;;;;;;35.10;36.60;;;28.71;50.71;95904.78;5011890;28;19909;-47
2023/08/12 10:11:15;;;;;;;;;;;35.00;36.70;;;29.05;50.54;95900.09;5009981;28;19999;-49
2023/08/12 10:13:41;;;;;;;;;;;35.20;36.70;;;29.42;48.09;95904.72;5007131;28;19920;-45
2023/08/12 10:16:09;;;;;;;;;;;35.70;36.60;;;29.35;47.46;95901.13;5003370;28;19909;-46
2023/08/12 10:18:38;;;;;;;;;;;35.90;36.40;;;29.34;47.39;95899.56;5013188;28;19932;-49
2023/08/12 10:21:05;;;;;;;;;;;35.90;36.20;;;29.28;46.46;95885.41;5001543;28;19909;-48
2023/08/12 10:23:32;;;;;;;;;;;36.10;36.10;;;29.33;46.64;95898.75;4994540;28;20372;-45
2023/08/12 10:26:01;;;;;;;;;;;36.00;36.10;;;29.43;47.20;95900.06;4995592;28;19913;-49
2023/08/12 10:28:31;;;;;;;;;;;35.80;36.10;;;29.51;46.66;95898.94;5012754;28;19917;-46
2023/08/12 10:30:58;;;;;;;;;;;35.60;36.20;;;29.63;46.56;95904.16;5006907;28;20441;-48
2023/08/12 10:33:24;;;;;;;;;;;35.60;36.40;;;29.37;46.71;95913.31;5010435;28;19916;-47
2023/08/12 10:35:49;;;;;;;;;;;35.40;36.30;;;28.98;47.52;95916.41;5004084;28;19908;-45
2023/08/12 10:38:20;;;;;;;;;;;35.20;36.30;;;28.89;48.11;95918.66;5007835;28;19909;-46
2023/08/12 10:40:50;;;;;;;;;;;35.00;36.30;;;28.90;48.84;95912.03;5003414;28;20011;-46
2023/08/12 10:43:16;;;;;;;;;;;34.80;36.40;;;28.94;48.98;95917.56;5010425;28;19971;-47
2023/08/12 10:45:51;;;;;;;;;;;34.70;36.60;;;28.82;49.13;95919.38;5007593;28;20449;-45
2023/08/12 10:48:27;;;;;;;;;;;34.60;36.70;;;28.78;48.73;95906.81;5007120;28;20387;-45
2023/08/12 10:50:59;;;;;;;;;;;34.60;36.70;;;29.03;48.12;95912.59;5011507;28;19966;-45
2023/08/12 10:53:33;;;;;;;;;;;34.80;36.80;;;29.17;48.22;95923.69;5000783;28;20391;-46
2023/08/12 10:56:11;;;;;;;;;;;35.00;36.60;;;28.97;48.80;95930.53;5010962;28;19924;-45
2023/08/12 10:58:47;;;;;;;;;;;35.00;36.60;;;28.74;47.78;95928.72;5003008;28;19956;-45
2023/08/12 11:01:20;;;;;;;;;;;34.70;36.60;;;28.44;48.30;95925.97;5011764;28;20012;-46
2023/08/12 11:03:48;;;;;;;;;;;34.50;36.70;;;28.10;48.97;95916.88;5013021;28;20379;-47
2023/08/12 11:06:14;;;;;;;;;;;34.10;36.80;;;28.20;49.32;95918.19;5011836;28;20775;-44
2023/08/12 11:08:51;;;;;;;;;;;33.80;37.00;;;28.07;49.47;95932.09;4999141;28;19916;-46
2023/08/12 11:11:24;;;;;;;;;;;33.40;37.30;;;28.07;49.91;95923.09;5013453;28;19910;-45
2023/08/12 11:13:59;;;;;;;;;;;33.10;37.60;;;27.85;50.62;95928.25;4994679;28;19951;-45